createdAt,value
2018-09-08T00:00:57.284Z,100986.45
2018-09-08T00:03:38.143Z,100994.22
2018-09-08T00:06:09.756Z,100997.23
2018-09-08T00:08:38.804Z,100998.42
2018-09-08T00:11:07.953Z,100996.55
2018-09-08T00:13:37.024Z,101001.62
2018-09-08T00:16:11.269Z,101004.11
2018-09-08T00:18:45.483Z,100998.89
2018-09-08T00:21:19.356Z,101001.58
2018-09-08T00:24:00.646Z,101004.62
2018-09-08T00:26:33.589Z,101002.81
2018-09-08T00:29:07.592Z,101003.28
2018-09-08T00:31:36.558Z,101000.79
2018-09-08T00:34:05.705Z,101006.69
2018-09-08T00:36:34.716Z,101006.25
2018-09-08T00:39:03.742Z,101005.58
2018-09-08T00:41:32.784Z,101010.09
2018-09-08T00:44:01.710Z,101014.36
2018-09-08T00:46:30.669Z,101010.95
2018-09-08T00:48:59.617Z,101017.94
2018-09-08T00:51:28.750Z,101014.80
2018-09-08T00:53:58.873Z,101019.72
2018-09-08T00:56:28.614Z,101019.53
2018-09-08T00:59:03.964Z,101023.97
2018-09-08T01:01:34.210Z,101022.47
2018-09-08T01:04:03.211Z,101016.54
2018-09-08T01:06:32.305Z,101015.03
2018-09-08T01:09:01.300Z,101012.09
2018-09-08T01:11:30.247Z,101009.19
2018-09-08T01:14:02.832Z,101009.52
2018-09-08T01:16:31.790Z,101005.99
2018-09-08T01:19:00.670Z,101008.13
2018-09-08T01:21:31.584Z,101014.45
2018-09-08T01:24:01.157Z,101013.62
2018-09-08T01:26:30.014Z,101015.30
2018-09-08T01:28:59.057Z,101012.25
2018-09-08T01:31:27.992Z,101008.83
2018-09-08T01:33:56.927Z,101018.47
2018-09-08T01:36:25.884Z,101020.56
2018-09-08T01:38:54.781Z,101024.53
2018-09-08T01:41:23.677Z,101022.58
2018-09-08T01:43:52.573Z,101019.16
2018-09-08T01:46:21.449Z,101024.02
2018-09-08T01:48:50.402Z,101023.83
2018-09-08T01:51:19.405Z,101026.84
2018-09-08T01:53:48.248Z,101029.64
2018-09-08T01:56:17.252Z,101030.25
2018-09-08T01:58:46.103Z,101034.09
2018-09-08T02:01:15.117Z,101033.37
2018-09-08T02:03:43.832Z,101037.70
2018-09-08T02:06:12.812Z,101039.98
2018-09-08T02:08:41.785Z,101031.22
2018-09-08T02:11:10.612Z,101035.05
2018-09-08T02:13:39.425Z,101031.64
2018-09-08T02:16:08.402Z,101033.81
2018-09-08T02:18:37.296Z,101032.37
2018-09-08T02:21:06.705Z,101024.83
2018-09-08T02:23:35.687Z,101026.17
2018-09-08T02:26:04.597Z,101028.14
2018-09-08T02:28:33.982Z,101027.85
2018-09-08T02:31:03.244Z,101029.38
2018-09-08T02:33:35.807Z,101022.28
2018-09-08T02:36:04.772Z,101027.13
2018-09-08T02:38:33.758Z,101024.13
2018-09-08T02:41:03.265Z,101031.14
2018-09-08T02:43:32.186Z,101029.69
2018-09-08T02:46:01.028Z,101033.09
2018-09-08T02:48:29.869Z,101029.09
2018-09-08T02:50:57.384Z,101030.33
2018-09-08T02:53:24.866Z,101033.19
2018-09-08T02:55:52.382Z,101034.23
2018-09-08T02:58:19.845Z,101029.27
2018-09-08T03:00:47.344Z,101027.64
2018-09-08T03:03:14.803Z,101029.89
2018-09-08T03:05:42.264Z,101033.41
2018-09-08T03:08:09.754Z,101035.16
2018-09-08T03:10:37.250Z,101041.45
2018-09-08T03:13:04.694Z,101034.44
2018-09-08T03:15:32.188Z,101047.22
2018-09-08T03:17:59.691Z,101048.47
2018-09-08T03:20:27.134Z,101049.70
2018-09-08T03:22:54.729Z,101050.94
2018-09-08T03:25:22.200Z,101058.27
2018-09-08T03:27:49.707Z,101065.39
2018-09-08T03:30:17.164Z,101068.27
2018-09-08T03:32:44.648Z,101067.66
2018-09-08T03:35:12.082Z,101067.12
2018-09-08T03:37:39.559Z,101073.83
2018-09-08T03:40:06.972Z,101075.24
2018-09-08T03:42:34.430Z,101072.96
2018-09-08T03:45:01.881Z,101080.16
2018-09-08T03:47:29.391Z,101080.34
2018-09-08T03:49:56.912Z,101086.59
2018-09-08T03:52:24.424Z,101085.03
2018-09-08T03:54:51.858Z,101086.05
2018-09-08T03:57:19.349Z,101085.82
2018-09-08T03:59:46.861Z,101088.59
2018-09-08T04:02:14.319Z,101091.67
2018-09-08T04:04:43.253Z,101097.48
2018-09-08T04:07:12.228Z,101101.98
2018-09-08T04:09:41.017Z,101099.38
2018-09-08T04:12:10.071Z,101101.02
2018-09-08T04:14:38.968Z,101104.98
2018-09-08T04:17:08.001Z,101101.83
2018-09-08T04:19:36.965Z,101105.38
2018-09-08T04:22:05.984Z,101108.84
2018-09-08T04:24:34.876Z,101108.91
2018-09-08T04:27:03.735Z,101105.27
2018-09-08T04:29:32.718Z,101105.36
2018-09-08T04:32:01.566Z,101104.91
2018-09-08T04:34:30.450Z,101104.91
2018-09-08T04:36:59.335Z,101106.78
2018-09-08T04:39:28.278Z,101103.98
2018-09-08T04:41:57.345Z,101103.03
2018-09-08T04:44:28.286Z,101114.61
2018-09-08T04:46:57.296Z,101112.45
2018-09-08T04:49:26.235Z,101111.94
2018-09-08T04:51:55.145Z,101114.83
2018-09-08T04:54:24.201Z,101121.55
2018-09-08T04:56:53.144Z,101124.47
2018-09-08T04:59:22.076Z,101128.09
2018-09-08T05:01:51.057Z,101128.43
2018-09-08T05:04:19.884Z,101126.55
2018-09-08T05:06:48.747Z,101131.65
2018-09-08T05:09:17.761Z,101124.61
2018-09-08T05:11:47.969Z,101125.05
2018-09-08T05:14:16.851Z,101128.06
2018-09-08T05:16:45.776Z,101131.66
2018-09-08T05:19:14.740Z,101133.56
2018-09-08T05:21:43.559Z,101134.81
2018-09-08T05:24:12.527Z,101139.16
2018-09-08T05:26:41.314Z,101134.94
2018-09-08T05:29:10.245Z,101133.71
2018-09-08T05:31:39.146Z,101132.37
2018-09-08T05:34:08.179Z,101137.05
2018-09-08T05:36:37.121Z,101135.29
2018-09-08T05:39:07.311Z,101138.86
2018-09-08T05:41:36.272Z,101148.76
2018-09-08T05:44:05.216Z,101145.30
2018-09-08T05:46:34.152Z,101150.59
2018-09-08T05:49:03.093Z,101152.89
2018-09-08T05:51:32.005Z,101146.81
2018-09-08T05:54:00.846Z,101148.70
2018-09-08T05:56:29.786Z,101156.70
2018-09-08T05:58:58.803Z,101157.33
2018-09-08T06:01:27.776Z,101147.72
2018-09-08T06:03:56.708Z,101149.28
2018-09-08T06:06:25.557Z,101154.97
2018-09-08T06:08:54.405Z,101163.86
2018-09-08T06:11:23.214Z,101164.80
2018-09-08T06:13:52.295Z,101160.49
2018-09-08T06:16:21.107Z,101160.92
2018-09-08T06:18:50.055Z,101162.59
2018-09-08T06:21:18.965Z,101160.14
2018-09-08T06:23:48.488Z,101162.20
2018-09-08T06:26:17.276Z,101167.25
2018-09-08T06:28:46.370Z,101170.38
2018-09-08T06:31:15.281Z,101172.55
2018-09-08T06:33:44.078Z,101164.90
2018-09-08T06:36:13.048Z,101170.03
2018-09-08T06:38:41.961Z,101171.03
2018-09-08T06:41:10.811Z,101173.78
2018-09-08T06:43:39.772Z,101175.22
2018-09-08T06:46:08.738Z,101174.45
2018-09-08T06:48:37.662Z,101174.81
2018-09-08T06:51:06.691Z,101181.31
2018-09-08T06:53:35.604Z,101180.75
2018-09-08T06:56:04.528Z,101179.91
2018-09-08T06:58:33.421Z,101181.84
2018-09-08T07:01:02.253Z,101177.58
2018-09-08T07:03:31.300Z,101181.86
2018-09-08T07:06:00.271Z,101183.45
2018-09-08T07:08:29.200Z,101184.97
2018-09-08T07:10:58.041Z,101190.30
2018-09-08T07:13:26.996Z,101188.36
2018-09-08T07:15:55.966Z,101193.20
2018-09-08T07:18:24.922Z,101192.28
2018-09-08T07:20:53.924Z,101181.84
2018-09-08T07:23:22.716Z,101187.08
2018-09-08T07:25:51.744Z,101191.41
2018-09-08T07:28:20.692Z,101189.82
2018-09-08T07:30:49.692Z,101184.50
2018-09-08T07:33:18.603Z,101188.27
2018-09-08T07:35:47.645Z,101188.41
2018-09-08T07:38:16.625Z,101179.55
2018-09-08T07:40:45.524Z,101182.25
2018-09-08T07:43:14.356Z,101187.05
2018-09-08T07:45:43.195Z,101182.39
2018-09-08T07:48:12.133Z,101183.00
2018-09-08T07:50:41.106Z,101187.84
2018-09-08T07:53:10.111Z,101189.18
2018-09-08T07:55:39.162Z,101190.52
2018-09-08T07:58:08.184Z,101188.13
2018-09-08T08:00:37.157Z,101196.80
2018-09-08T08:03:05.996Z,101197.02
2018-09-08T08:05:35.007Z,101200.62
2018-09-08T08:08:03.895Z,101202.91
2018-09-08T08:10:32.953Z,101200.94
2018-09-08T08:13:02.001Z,101204.24
2018-09-08T08:15:31.052Z,101209.80
2018-09-08T08:18:00.091Z,101203.69
2018-09-08T08:20:28.984Z,101207.09
2018-09-08T08:22:57.920Z,101203.22
2018-09-08T08:25:26.939Z,101211.91
2018-09-08T08:27:55.760Z,101208.91
2018-09-08T08:30:24.732Z,101210.78
2018-09-08T08:32:53.717Z,101216.81
2018-09-08T08:35:22.801Z,101211.72
2018-09-08T08:37:51.867Z,101210.61
2018-09-08T08:40:20.856Z,101212.91
2018-09-08T08:42:49.860Z,101208.93
2018-09-08T08:45:18.816Z,101207.98
2018-09-08T08:47:47.799Z,101205.95
2018-09-08T08:50:27.844Z,101213.64
2018-09-08T08:53:07.726Z,101215.82
2018-09-08T08:55:36.785Z,101211.95
2018-09-08T08:58:05.794Z,101218.30
2018-09-08T09:00:34.802Z,101213.59
2018-09-08T09:03:03.695Z,101211.70
2018-09-08T09:05:32.750Z,101218.89
2018-09-08T09:08:01.740Z,101214.62
2018-09-08T09:10:30.717Z,101211.91
2018-09-08T09:12:59.708Z,101216.59
2018-09-08T09:15:29.024Z,101220.77
2018-09-08T09:17:57.752Z,101220.66
2018-09-08T09:20:37.781Z,101224.13
2018-09-08T09:23:18.059Z,101219.48
2018-09-08T09:25:46.842Z,101221.89
2018-09-08T09:28:15.836Z,101218.89
2018-09-08T09:30:44.887Z,101225.64
2018-09-08T09:33:13.823Z,101226.27
2018-09-08T09:35:42.768Z,101229.08
2018-09-08T09:38:11.687Z,101229.78
2018-09-08T09:40:40.632Z,101240.03
2018-09-08T09:43:09.738Z,101241.13
2018-09-08T09:45:38.700Z,101239.95
2018-09-08T09:48:07.735Z,101235.52
2018-09-08T09:50:36.723Z,101232.67
2018-09-08T09:53:05.738Z,101220.28
2018-09-08T09:55:34.732Z,101207.55
2018-09-08T09:58:03.728Z,101221.53
2018-09-08T10:00:37.669Z,101222.63
2018-09-08T10:03:07.930Z,101210.75
2018-09-08T10:05:37.424Z,101214.19
2018-09-08T10:08:06.432Z,101219.91
2018-09-08T10:10:35.411Z,101218.00
2018-09-08T10:13:04.364Z,101222.62
2018-09-08T10:15:33.412Z,101225.69
2018-09-08T10:18:02.364Z,101224.28
2018-09-08T10:20:31.236Z,101227.66
2018-09-08T10:23:00.344Z,101229.34
2018-09-08T10:25:30.180Z,101236.23
2018-09-08T10:27:59.060Z,101228.60
2018-09-08T10:30:27.987Z,101231.18
2018-09-08T10:32:57.032Z,101226.89
2018-09-08T10:35:26.013Z,101220.08
2018-09-08T10:37:54.985Z,101227.19
2018-09-08T10:40:24.009Z,101222.55
2018-09-08T10:42:52.861Z,101226.93
2018-09-08T10:45:21.830Z,101228.49
2018-09-08T10:47:50.864Z,101221.24
2018-09-08T10:50:19.858Z,101223.33
2018-09-08T10:52:49.646Z,101222.56
2018-09-08T10:55:18.553Z,101222.31
2018-09-08T10:57:47.557Z,101213.78
2018-09-08T11:00:16.953Z,101210.88
2018-09-08T11:02:46.169Z,101217.97
2018-09-08T11:05:14.868Z,101223.80
2018-09-08T11:07:43.859Z,101227.94
2018-09-08T11:10:12.876Z,101217.05
2018-09-08T11:12:41.833Z,101210.95
2018-09-08T11:15:11.219Z,101217.27
2018-09-08T11:17:40.241Z,101213.24
2018-09-08T11:20:09.643Z,101220.12
2018-09-08T11:22:38.717Z,101217.74
2018-09-08T11:25:07.798Z,101218.12
2018-09-08T11:27:36.921Z,101224.42
2018-09-08T11:30:06.401Z,101224.66
2018-09-08T11:32:35.392Z,101225.99
2018-09-08T11:35:04.462Z,101227.27
2018-09-08T11:37:33.332Z,101221.83
2018-09-08T11:40:02.246Z,101216.45
2018-09-08T11:42:31.171Z,101214.80
2018-09-08T11:45:00.093Z,101212.91
2018-09-08T11:47:29.058Z,101210.20
2018-09-08T11:49:58.064Z,101200.52
2018-09-08T11:52:26.915Z,101202.77
2018-09-08T11:54:55.880Z,101204.73
2018-09-08T11:57:24.820Z,101202.59
2018-09-08T11:59:53.777Z,101200.69
2018-09-08T12:02:22.707Z,101201.21
2018-09-08T12:04:51.669Z,101204.50
2018-09-08T12:07:20.656Z,101200.43
2018-09-08T12:09:49.495Z,101198.25
2018-09-08T12:12:18.484Z,101200.72
2018-09-08T12:14:47.475Z,101203.96
2018-09-08T12:17:16.457Z,101197.08
2018-09-08T12:19:45.519Z,101202.29
2018-09-08T12:22:14.553Z,101206.69
2018-09-08T12:24:43.512Z,101199.33
2018-09-08T12:27:12.464Z,101197.97
2018-09-08T12:29:41.424Z,101208.52
2018-09-08T12:32:10.346Z,101198.47
2018-09-08T12:34:39.235Z,101205.67
2018-09-08T12:37:08.147Z,101198.42
2018-09-08T12:39:37.003Z,101201.59
2018-09-08T12:42:05.972Z,101195.31
2018-09-08T12:44:34.995Z,101194.50
2018-09-08T12:47:03.960Z,101195.14
2018-09-08T12:49:32.979Z,101191.09
2018-09-08T12:52:02.014Z,101189.23
2018-09-08T12:54:30.994Z,101185.97
2018-09-08T12:57:00.038Z,101184.46
2018-09-08T12:59:29.028Z,101172.58
2018-09-08T13:01:57.909Z,101175.08
2018-09-08T13:04:27.056Z,101177.34
2018-09-08T13:06:56.000Z,101172.05
2018-09-08T13:09:24.921Z,101172.41
2018-09-08T13:11:54.074Z,101172.34
2018-09-08T13:14:23.433Z,101165.68
2018-09-08T13:16:52.425Z,101148.06
2018-09-08T13:19:21.321Z,101151.19
2018-09-08T13:21:50.351Z,101154.24
2018-09-08T13:24:19.346Z,101151.42
2018-09-08T13:26:48.330Z,101148.22
2018-09-08T13:29:17.379Z,101158.58
2018-09-08T13:31:46.391Z,101157.22
2018-09-08T13:34:15.437Z,101165.02
2018-09-08T13:36:44.409Z,101167.24
2018-09-08T13:39:13.324Z,101172.58
2018-09-08T13:41:42.304Z,101171.80
2018-09-08T13:44:11.204Z,101169.91
2018-09-08T13:46:40.115Z,101170.98
2018-09-08T13:49:09.007Z,101168.34
2018-09-08T13:51:38.087Z,101163.44
2018-09-08T13:54:07.086Z,101166.70
2018-09-08T13:56:36.154Z,101162.45
2018-09-08T13:59:05.164Z,101163.63
2018-09-08T14:01:34.200Z,101157.55
2018-09-08T14:04:03.217Z,101161.98
2018-09-08T14:06:32.053Z,101155.00
2018-09-08T14:09:01.133Z,101153.14
2018-09-08T14:11:30.106Z,101152.51
2018-09-08T14:13:59.139Z,101148.16
2018-09-08T14:16:28.059Z,101156.30
2018-09-08T14:18:57.015Z,101150.88
2018-09-08T14:21:25.994Z,101150.66
2018-09-08T14:23:54.931Z,101156.26
2018-09-08T14:26:23.971Z,101160.80
2018-09-08T14:28:53.006Z,101154.63
2018-09-08T14:31:22.057Z,101152.17
2018-09-08T14:33:51.009Z,101163.28
2018-09-08T14:36:19.985Z,101154.59
2018-09-08T14:38:49.016Z,101165.41
2018-09-08T14:41:17.996Z,101170.50
2018-09-08T14:43:46.893Z,101159.59
2018-09-08T14:46:15.817Z,101160.92
2018-09-08T14:48:46.844Z,101165.36
2018-09-08T14:51:15.888Z,101171.70
2018-09-08T14:53:44.864Z,101170.62
2018-09-08T14:56:13.822Z,101164.69
2018-09-08T14:58:42.858Z,101168.24
2018-09-08T15:01:11.860Z,101172.58
2018-09-08T15:03:40.872Z,101173.66
2018-09-08T15:06:09.737Z,101169.01
2018-09-08T15:08:38.632Z,101165.66
2018-09-08T15:11:07.698Z,101160.16
2018-09-08T15:13:36.668Z,101157.95
2018-09-08T15:16:05.769Z,101157.08
2018-09-08T15:18:34.592Z,101155.16
2018-09-08T15:21:03.661Z,101151.34
2018-09-08T15:23:32.524Z,101162.72
2018-09-08T15:26:01.603Z,101166.16
2018-09-08T15:28:30.579Z,101164.69
2018-09-08T15:30:59.591Z,101155.10
2018-09-08T15:33:28.462Z,101164.00
2018-09-08T15:35:58.127Z,101168.05
2018-09-08T15:38:27.073Z,101156.28
2018-09-08T15:40:56.020Z,101161.66
2018-09-08T15:43:25.016Z,101173.08
2018-09-08T15:45:54.985Z,101162.75
2018-09-08T15:48:23.957Z,101161.11
2018-09-08T15:50:52.823Z,101158.41
2018-09-08T15:53:21.816Z,101148.38
2018-09-08T15:55:50.815Z,101156.14
2018-09-08T15:58:19.692Z,101160.30
2018-09-08T16:00:48.678Z,101158.95
2018-09-08T16:03:17.585Z,101156.78
2018-09-08T16:05:46.548Z,101154.36
2018-09-08T16:08:15.548Z,101155.72
2018-09-08T16:10:44.534Z,101160.84
2018-09-08T16:13:13.447Z,101144.78
2018-09-08T16:15:42.482Z,101144.44
2018-09-08T16:18:11.429Z,101159.15
2018-09-08T16:20:40.317Z,101173.02
2018-09-08T16:23:09.283Z,101174.70
2018-09-08T16:25:38.305Z,101167.41
2018-09-08T16:28:07.252Z,101170.73
2018-09-08T16:30:36.313Z,101176.70
2018-09-08T16:33:05.264Z,101180.22
2018-09-08T16:35:34.309Z,101180.69
2018-09-08T16:38:03.297Z,101175.70
2018-09-08T16:40:32.232Z,101175.87
2018-09-08T16:43:01.113Z,101176.30
2018-09-08T16:45:30.091Z,101175.16
2018-09-08T16:48:01.032Z,101178.01
2018-09-08T16:50:30.005Z,101170.56
2018-09-08T16:52:58.930Z,101170.25
2018-09-08T16:55:27.966Z,101171.02
2018-09-08T16:58:00.103Z,101179.42
2018-09-08T17:00:29.124Z,101179.37
2018-09-08T17:02:58.026Z,101172.52
2018-09-08T17:05:26.997Z,101173.56
2018-09-08T17:07:55.954Z,101172.92
2018-09-08T17:10:24.966Z,101176.64
2018-09-08T17:12:53.944Z,101177.12
2018-09-08T17:15:23.006Z,101181.19
2018-09-08T17:17:51.964Z,101168.61
2018-09-08T17:20:20.886Z,101173.69
2018-09-08T17:22:49.807Z,101168.16
2018-09-08T17:25:18.861Z,101174.36
2018-09-08T17:27:48.733Z,101161.98
2018-09-08T17:30:17.761Z,101175.19
2018-09-08T17:32:46.710Z,101173.73
2018-09-08T17:35:15.604Z,101176.08
2018-09-08T17:37:44.501Z,101176.04
2018-09-08T17:40:13.569Z,101174.02
2018-09-08T17:42:42.597Z,101170.36
2018-09-08T17:45:11.593Z,101169.98
2018-09-08T17:47:40.484Z,101157.06
2018-09-08T17:50:09.454Z,101159.01
2018-09-08T17:52:38.336Z,101155.98
2018-09-08T17:55:07.289Z,101163.59
2018-09-08T17:57:36.306Z,101166.09
2018-09-08T18:00:05.581Z,101174.51
2018-09-08T18:02:34.467Z,101174.09
2018-09-08T18:05:03.453Z,101173.42
2018-09-08T18:07:32.429Z,101185.47
2018-09-08T18:10:01.353Z,101183.41
2018-09-08T18:12:30.341Z,101186.89
2018-09-08T18:14:59.347Z,101188.97
2018-09-08T18:17:28.438Z,101183.20
2018-09-08T18:19:57.165Z,101180.87
2018-09-08T18:22:26.053Z,101184.52
2018-09-08T18:24:54.962Z,101185.19
2018-09-08T18:27:23.937Z,101186.33
2018-09-08T18:29:52.967Z,101183.92
2018-09-08T18:32:22.067Z,101194.98
2018-09-08T18:34:50.977Z,101198.56
2018-09-08T18:37:19.893Z,101197.86
2018-09-08T18:39:48.889Z,101192.80
2018-09-08T18:42:18.033Z,101203.22
2018-09-08T18:44:46.948Z,101201.74
2018-09-08T18:47:15.896Z,101200.39
2018-09-08T18:49:44.732Z,101198.45
2018-09-08T18:52:13.590Z,101195.91
2018-09-08T18:54:42.475Z,101210.37
2018-09-08T18:57:11.715Z,101214.05
2018-09-08T18:59:40.634Z,101210.06
2018-09-08T19:02:09.511Z,101204.02
2018-09-08T19:04:38.332Z,101202.91
2018-09-08T19:07:07.256Z,101207.11
2018-09-08T19:09:36.212Z,101204.39
2018-09-08T19:12:05.257Z,101205.55
2018-09-08T19:14:39.352Z,101206.63
2018-09-08T19:17:08.352Z,101206.39
2018-09-08T19:19:37.257Z,101204.81
2018-09-08T19:22:06.318Z,101208.03
2018-09-08T19:24:40.407Z,101201.31
2018-09-08T19:27:09.309Z,101211.80
2018-09-08T19:29:44.409Z,101209.38
2018-09-08T19:32:13.410Z,101206.31
2018-09-08T19:34:42.294Z,101205.22
2018-09-08T19:37:11.296Z,101201.66
2018-09-08T19:39:40.253Z,101213.19
2018-09-08T19:42:09.232Z,101207.51
2018-09-08T19:44:38.107Z,101205.95
2018-09-08T19:47:12.223Z,101210.50
2018-09-08T19:49:41.101Z,101206.55
2018-09-08T19:53:12.830Z,101208.20
2018-09-08T19:55:41.712Z,101214.50
2018-09-08T19:58:15.859Z,101213.10
2018-09-08T20:00:44.876Z,101218.61
2018-09-08T20:03:14.018Z,101212.30
2018-09-08T20:05:43.097Z,101211.98
2018-09-08T20:08:12.098Z,101207.69
2018-09-08T20:10:41.062Z,101207.61
2018-09-08T20:13:09.932Z,101209.55
2018-09-08T20:15:38.833Z,101207.02
2018-09-08T20:18:07.801Z,101210.48
2018-09-08T20:20:36.744Z,101218.81
2018-09-08T20:23:05.592Z,101211.40
2018-09-08T20:25:34.529Z,101221.23
2018-09-08T20:28:03.516Z,101225.95
2018-09-08T20:30:32.460Z,101225.27
2018-09-08T20:33:01.420Z,101229.40
2018-09-08T20:35:30.350Z,101227.61
2018-09-08T20:37:59.212Z,101228.52
2018-09-08T20:40:28.132Z,101228.21
2018-09-08T20:42:56.963Z,101234.15
2018-09-08T20:45:25.776Z,101229.27
2018-09-08T20:47:54.818Z,101227.61
2018-09-08T20:50:23.808Z,101225.98
2018-09-08T20:52:52.720Z,101219.53
2018-09-08T20:55:21.587Z,101221.86
2018-09-08T20:57:50.398Z,101220.91
2018-09-08T21:00:19.249Z,101218.48
2018-09-08T21:02:48.182Z,101216.11
2018-09-08T21:05:17.077Z,101217.77
2018-09-08T21:07:46.053Z,101214.52
2018-09-08T21:10:14.989Z,101215.07
2018-09-08T21:12:43.976Z,101225.11
2018-09-08T21:15:12.860Z,101224.04
2018-09-08T21:17:41.780Z,101227.36
2018-09-08T21:20:10.560Z,101226.64
2018-09-08T21:22:39.479Z,101224.11
2018-09-08T21:25:08.314Z,101230.19
2018-09-08T21:27:37.376Z,101236.33
2018-09-08T21:30:06.342Z,101240.61
2018-09-08T21:32:35.348Z,101243.59
2018-09-08T21:35:04.431Z,101241.72
2018-09-08T21:37:33.436Z,101246.67
2018-09-08T21:40:05.506Z,101251.47
2018-09-08T21:42:34.363Z,101244.66
2018-09-08T21:45:03.411Z,101244.26
2018-09-08T21:47:32.296Z,101244.78
2018-09-08T21:50:01.235Z,101245.30
2018-09-08T21:52:30.070Z,101242.59
2018-09-08T21:54:59.068Z,101242.31
2018-09-08T21:57:28.088Z,101240.42
2018-09-08T21:59:56.935Z,101240.42
2018-09-08T22:02:25.913Z,101245.02
2018-09-08T22:04:54.761Z,101239.23
2018-09-08T22:07:23.756Z,101238.83
2018-09-08T22:09:52.664Z,101239.90
2018-09-08T22:12:21.646Z,101238.23
2018-09-08T22:14:50.564Z,101232.84
2018-09-08T22:17:19.496Z,101229.95
2018-09-08T22:19:48.465Z,101225.91
2018-09-08T22:22:17.680Z,101223.41
2018-09-08T22:24:46.640Z,101230.07
2018-09-08T22:27:15.568Z,101226.27
2018-09-08T22:29:44.563Z,101227.89
2018-09-08T22:32:13.432Z,101223.25
2018-09-08T22:34:42.454Z,101229.39
2018-09-08T22:37:11.392Z,101220.71
2018-09-08T22:39:40.479Z,101224.75
2018-09-08T22:42:09.404Z,101225.27
2018-09-08T22:44:38.534Z,101226.38
2018-09-08T22:47:07.698Z,101221.70
2018-09-08T22:49:36.665Z,101225.51
2018-09-08T22:52:05.614Z,101224.55
2018-09-08T22:54:34.550Z,101228.84
2018-09-08T22:57:03.383Z,101232.72
2018-09-08T22:59:32.269Z,101234.39
2018-09-08T23:02:01.085Z,101229.07
2018-09-08T23:04:30.088Z,101232.59
2018-09-08T23:06:59.021Z,101228.23
2018-09-08T23:09:27.837Z,101231.38
2018-09-08T23:11:56.761Z,101227.17
2018-09-08T23:14:25.614Z,101227.77
2018-09-08T23:16:54.531Z,101224.52
2018-09-08T23:19:23.351Z,101226.14
2018-09-08T23:21:52.269Z,101222.92
2018-09-08T23:24:21.210Z,101225.28
2018-09-08T23:26:50.122Z,101221.83
2018-09-08T23:29:19.152Z,101229.42
2018-09-08T23:31:48.072Z,101228.22
2018-09-08T23:34:17.173Z,101223.55
2018-09-08T23:36:46.081Z,101226.56
2018-09-08T23:39:15.044Z,101230.52
2018-09-08T23:41:43.866Z,101227.42
2018-09-08T23:44:12.859Z,101228.14
2018-09-08T23:46:42.793Z,101226.45
2018-09-08T23:49:11.761Z,101223.48
2018-09-08T23:51:40.721Z,101225.08
2018-09-08T23:54:09.623Z,101226.95
2018-09-08T23:56:38.586Z,101229.47
2018-09-08T23:59:07.466Z,101227.52
